Time;durP1;ratioP1;P1;durP2;ratioP2;P2;SDS_P1;SDS_P2;PMS_P1;PMS_P2;Temp;Humidity;BMP_temperature;BMP_pressure;BME280_temperature;BME280_humidity;BME280_pressure;Samples;Min_cycle;Max_cycle;Signal;HPM_P1;HPM_P2
2022/06/12 00:00:24;;;;;;;;;5.00;2.00;;;;;;;;4975800;28;45621;-66
2022/06/12 00:02:50;;;;;;;;;1.50;1.25;;;;;;;;4990884;28;45456;-66
2022/06/12 00:05:16;;;;;;;;;1.25;1.25;;;;;;;;4988693;28;45456;-67
2022/06/12 00:07:42;;;;;;;;;2.00;0.75;;;;;;;;4975293;28;45423;-67
2022/06/12 00:10:08;;;;;;;;;1.75;1.75;;;;;;;;4980978;28;45396;-67
2022/06/12 00:12:34;;;;;;;;;2.00;1.00;;;;;;;;4988094;28;45636;-67
2022/06/12 00:15:00;;;;;;;;;4.00;3.00;;;;;;;;4987591;28;47849;-66
2022/06/12 00:17:25;;;;;;;;;4.50;1.75;;;;;;;;4979118;28;45330;-68
2022/06/12 00:19:50;;;;;;;;;4.25;3.25;;;;;;;;4990421;28;45481;-67
2022/06/12 00:22:17;;;;;;;;;6.00;5.75;;;;;;;;4983471;28;45469;-67
2022/06/12 00:24:43;;;;;;;;;17.00;14.00;;;;;;;;4979727;28;48065;-67
2022/06/12 00:27:08;;;;;;;;;18.50;14.00;;;;;;;;4988624;28;45438;-67
2022/06/12 00:29:35;;;;;;;;;23.50;21.25;;;;;;;;4993455;28;45413;-67
2022/06/12 00:32:08;;;;;;;;;15.00;14.50;;;;;;;;4991982;28;45621;-66
2022/06/12 00:34:39;;;;;;;;;18.75;16.25;;;;;;;;4982943;28;45696;-66
2022/06/12 00:37:05;;;;;;;;;10.00;10.00;;;;;;;;4989850;28;45432;-66
2022/06/12 00:39:32;;;;;;;;;8.00;7.00;;;;;;;;4988449;28;45514;-65
2022/06/12 00:41:59;;;;;;;;;6.00;6.00;;;;;;;;4984755;28;45460;-67
2022/06/12 00:44:28;;;;;;;;;4.00;4.00;;;;;;;;5024297;28;47984;-69
2022/06/12 00:46:58;;;;;;;;;3.50;3.50;;;;;;;;4981221;28;46741;-66
2022/06/12 00:49:29;;;;;;;;;5.00;4.00;;;;;;;;4988307;28;45724;-67
2022/06/12 00:52:07;;;;;;;;;4.75;4.75;;;;;;;;4984320;28;45500;-67
2022/06/12 00:54:33;;;;;;;;;3.00;3.00;;;;;;;;5018540;28;46418;-65
2022/06/12 00:56:59;;;;;;;;;4.50;4.50;;;;;;;;4986274;28;46353;-65
2022/06/12 00:59:25;;;;;;;;;2.50;2.50;;;;;;;;5019873;28;45560;-66
2022/06/12 01:01:51;;;;;;;;;4.50;3.50;;;;;;;;4990428;28;45315;-67
2022/06/12 01:07:04;;;;;;;;;1.00;1.00;;;;;;;;4993067;28;45417;-67
2022/06/12 01:09:33;;;;;;;;;2.75;2.75;;;;;;;;4992634;28;45502;-66
2022/06/12 01:12:00;;;;;;;;;6.00;5.00;;;;;;;;4987874;28;45566;-66
2022/06/12 01:14:27;;;;;;;;;3.25;3.25;;;;;;;;4997199;28;45919;-66
2022/06/12 01:16:56;;;;;;;;;2.00;1.50;;;;;;;;4992936;28;45344;-66
2022/06/12 01:19:21;;;;;;;;;4.25;3.25;;;;;;;;4982216;28;45605;-66
2022/06/12 01:22:04;;;;;;;;;2.00;2.00;;;;;;;;4981831;28;45458;-66
2022/06/12 01:24:37;;;;;;;;;2.00;2.00;;;;;;;;4980729;28;48857;-65
2022/06/12 01:27:08;;;;;;;;;4.75;3.75;;;;;;;;5007193;28;45879;-67
2022/06/12 01:29:40;;;;;;;;;3.25;3.25;;;;;;;;5008460;28;45430;-67
2022/06/12 01:32:14;;;;;;;;;4.25;3.25;;;;;;;;4978583;28;45681;-66
2022/06/12 01:34:49;;;;;;;;;4.00;3.00;;;;;;;;4975119;28;45787;-66
2022/06/12 01:37:21;;;;;;;;;2.50;2.50;;;;;;;;5005179;28;46422;-66
2022/06/12 01:39:52;;;;;;;;;5.00;2.50;;;;;;;;5006223;28;45332;-66
2022/06/12 01:42:18;;;;;;;;;1.75;1.75;;;;;;;;4975001;28;45431;-66
2022/06/12 01:45:00;;;;;;;;;2.25;0.50;;;;;;;;4974868;28;45366;-66
2022/06/12 01:47:31;;;;;;;;;1.75;1.75;;;;;;;;4974943;28;45482;-68
2022/06/12 01:50:02;;;;;;;;;2.00;1.75;;;;;;;;5006872;28;45335;-66
2022/06/12 01:52:31;;;;;;;;;2.00;2.00;;;;;;;;5005731;28;45431;-67
2022/06/12 01:55:05;;;;;;;;;3.00;2.00;;;;;;;;4974327;28;46457;-67
2022/06/12 01:57:32;;;;;;;;;2.00;1.00;;;;;;;;4974477;28;45616;-66
2022/06/12 02:00:00;;;;;;;;;3.00;3.00;;;;;;;;4976863;28;45331;-66
2022/06/12 02:02:32;;;;;;;;;2.25;1.50;;;;;;;;4976839;28;45552;-66
2022/06/12 02:04:57;;;;;;;;;1.25;1.25;;;;;;;;4975967;28;46459;-66
2022/06/12 02:07:43;;;;;;;;;3.25;1.50;;;;;;;;5005532;28;45385;-67
2022/06/12 02:10:17;;;;;;;;;2.00;2.00;;;;;;;;4974914;28;45204;-66
2022/06/12 02:15:37;;;;;;;;;2.00;2.00;;;;;;;;4976589;28;45531;-67
2022/06/12 02:18:06;;;;;;;;;3.00;2.50;;;;;;;;4977271;28;45390;-66
2022/06/12 02:20:35;;;;;;;;;2.25;1.50;;;;;;;;4977477;28;45376;-66
2022/06/12 02:23:03;;;;;;;;;3.75;2.00;;;;;;;;4973886;28;45408;-64
2022/06/12 02:25:32;;;;;;;;;2.00;2.00;;;;;;;;4976948;28;46254;-65
2022/06/12 02:28:01;;;;;;;;;1.50;1.50;;;;;;;;4977000;28;45245;-65
2022/06/12 02:30:29;;;;;;;;;1.75;1.75;;;;;;;;4973924;28;45380;-66
2022/06/12 02:32:58;;;;;;;;;5.00;3.00;;;;;;;;4975989;28;45336;-66
2022/06/12 02:35:39;;;;;;;;;3.25;1.25;;;;;;;;4975679;28;45692;-67
2022/06/12 02:38:07;;;;;;;;;1.75;1.50;;;;;;;;4971836;28;45784;-65
2022/06/12 02:40:35;;;;;;;;;2.00;2.00;;;;;;;;4974986;28;45445;-67
2022/06/12 02:43:05;;;;;;;;;4.00;2.00;;;;;;;;4973040;28;45463;-66
2022/06/12 02:45:33;;;;;;;;;1.75;1.75;;;;;;;;4969820;28;48604;-65
2022/06/12 02:48:00;;;;;;;;;5.25;2.50;;;;;;;;4973631;28;45879;-66
2022/06/12 02:50:27;;;;;;;;;2.25;2.25;;;;;;;;4972785;28;45547;-68
2022/06/12 02:53:08;;;;;;;;;3.00;2.50;;;;;;;;4974030;28;45816;-65
2022/06/12 02:55:47;;;;;;;;;2.25;2.25;;;;;;;;5005505;28;47150;-66
2022/06/12 02:58:37;;;;;;;;;2.50;2.00;;;;;;;;4972559;28;45592;-65
2022/06/12 03:01:08;;;;;;;;;3.00;1.00;;;;;;;;4971662;28;45810;-65
2022/06/12 03:03:53;;;;;;;;;2.00;2.00;;;;;;;;4973120;28;45458;-66
2022/06/12 03:06:19;;;;;;;;;1.75;1.75;;;;;;;;4972491;28;47729;-65
2022/06/12 03:08:47;;;;;;;;;4.25;3.00;;;;;;;;4974086;28;45385;-65
2022/06/12 03:11:18;;;;;;;;;5.25;3.50;;;;;;;;4973717;28;45430;-65
2022/06/12 03:13:45;;;;;;;;;3.25;2.50;;;;;;;;4972950;28;45645;-65
2022/06/12 03:16:10;;;;;;;;;2.75;2.00;;;;;;;;4973013;28;46142;-65
2022/06/12 03:18:39;;;;;;;;;2.00;2.00;;;;;;;;5003269;28;45589;-65
2022/06/12 03:21:23;;;;;;;;;2.00;2.00;;;;;;;;4970636;28;45443;-65
2022/06/12 03:23:54;;;;;;;;;2.00;1.75;;;;;;;;4971922;28;45328;-65
2022/06/12 03:26:36;;;;;;;;;1.50;1.50;;;;;;;;4973978;28;45792;-66
2022/06/12 03:29:12;;;;;;;;;4.25;2.50;;;;;;;;4987976;28;45508;-65
2022/06/12 03:31:43;;;;;;;;;5.00;3.75;;;;;;;;5004065;28;45645;-66
2022/06/12 03:34:14;;;;;;;;;4.25;3.00;;;;;;;;4971927;28;45342;-66
2022/06/12 03:37:06;;;;;;;;;3.50;2.00;;;;;;;;4972340;28;45859;-66
2022/06/12 03:39:34;;;;;;;;;2.25;2.25;;;;;;;;4973202;28;45460;-66
2022/06/12 03:42:03;;;;;;;;;4.25;2.75;;;;;;;;4972076;28;45503;-66
2022/06/12 03:44:37;;;;;;;;;3.50;3.00;;;;;;;;4973319;28;45351;-66
2022/06/12 03:47:15;;;;;;;;;2.00;2.00;;;;;;;;4973676;28;49197;-67
2022/06/12 03:49:43;;;;;;;;;4.00;3.00;;;;;;;;4971212;28;46401;-66
2022/06/12 03:52:19;;;;;;;;;4.75;4.00;;;;;;;;5004249;28;45355;-65
2022/06/12 03:55:03;;;;;;;;;3.25;2.00;;;;;;;;4973067;28;45450;-65
2022/06/12 03:57:53;;;;;;;;;4.00;2.25;;;;;;;;4971689;28;46070;-65
2022/06/12 04:00:40;;;;;;;;;2.75;1.50;;;;;;;;5003767;28;45445;-66
2022/06/12 04:03:05;;;;;;;;;4.25;1.50;;;;;;;;4959292;28;45501;-65
2022/06/12 04:05:35;;;;;;;;;3.00;2.00;;;;;;;;4971807;28;46043;-67
2022/06/12 04:08:02;;;;;;;;;3.25;2.25;;;;;;;;4987546;28;47699;-64
2022/06/12 04:10:30;;;;;;;;;2.25;2.25;;;;;;;;4972533;28;45476;-66
2022/06/12 04:12:57;;;;;;;;;4.75;2.25;;;;;;;;4972675;28;45372;-67
2022/06/12 04:15:26;;;;;;;;;3.75;3.75;;;;;;;;4972920;28;45582;-66
2022/06/12 04:17:51;;;;;;;;;3.00;3.00;;;;;;;;4972546;28;45430;-65
2022/06/12 04:20:22;;;;;;;;;3.75;2.25;;;;;;;;4973141;28;45478;-66
2022/06/12 04:23:06;;;;;;;;;5.25;4.00;;;;;;;;4972755;28;45408;-66
2022/06/12 04:25:47;;;;;;;;;1.00;0.75;;;;;;;;4964686;28;45386;-66
2022/06/12 04:28:24;;;;;;;;;1.50;1.50;;;;;;;;4978699;28;48768;-68
2022/06/12 04:30:50;;;;;;;;;2.00;1.75;;;;;;;;4985882;28;45447;-65
2022/06/12 04:33:15;;;;;;;;;2.25;2.25;;;;;;;;4972084;28;45645;-66
2022/06/12 04:35:44;;;;;;;;;2.00;2.00;;;;;;;;4971686;28;45915;-66
2022/06/12 04:38:09;;;;;;;;;5.75;2.00;;;;;;;;5003063;28;47524;-66
2022/06/12 04:40:34;;;;;;;;;5.75;3.50;;;;;;;;5005443;28;45530;-66
2022/06/12 04:43:00;;;;;;;;;2.50;2.25;;;;;;;;5007723;28;45538;-65
2022/06/12 04:45:25;;;;;;;;;2.00;2.00;;;;;;;;4976031;28;45445;-66
2022/06/12 04:47:50;;;;;;;;;4.00;2.25;;;;;;;;4975740;28;46098;-65
2022/06/12 04:50:16;;;;;;;;;5.75;3.75;;;;;;;;5008005;28;45403;-68
2022/06/12 04:52:41;;;;;;;;;3.00;3.00;;;;;;;;4974677;28;45654;-67
2022/06/12 04:55:07;;;;;;;;;3.50;3.00;;;;;;;;4975973;28;46175;-67
2022/06/12 04:57:32;;;;;;;;;4.50;4.00;;;;;;;;4971455;28;45610;-67
2022/06/12 04:59:57;;;;;;;;;6.25;4.25;;;;;;;;4973991;28;46416;-66
2022/06/12 05:02:23;;;;;;;;;3.50;2.50;;;;;;;;4974738;28;45694;-66
2022/06/12 05:04:48;;;;;;;;;4.50;3.00;;;;;;;;4974891;28;45354;-68
2022/06/12 05:07:14;;;;;;;;;2.50;2.50;;;;;;;;4973678;28;48506;-65
2022/06/12 05:09:39;;;;;;;;;5.25;2.50;;;;;;;;4974041;28;45840;-65
2022/06/12 05:12:05;;;;;;;;;4.25;3.00;;;;;;;;4974112;28;45366;-65
2022/06/12 05:14:30;;;;;;;;;4.50;2.00;;;;;;;;4975227;28;45445;-65
2022/06/12 05:16:57;;;;;;;;;3.00;3.00;;;;;;;;4990205;28;48597;-66
2022/06/12 05:19:24;;;;;;;;;4.00;2.25;;;;;;;;4975197;28;45674;-66
2022/06/12 05:21:50;;;;;;;;;6.75;3.75;;;;;;;;5006957;28;45433;-66
2022/06/12 05:24:15;;;;;;;;;3.25;3.25;;;;;;;;4975574;28;45427;-66
2022/06/12 05:26:41;;;;;;;;;4.00;2.00;;;;;;;;4975418;28;45466;-66
2022/06/12 05:29:08;;;;;;;;;5.75;2.75;;;;;;;;4991036;28;46440;-64
2022/06/12 05:31:33;;;;;;;;;6.00;3.75;;;;;;;;4973086;28;45400;-65
2022/06/12 05:33:59;;;;;;;;;4.00;4.00;;;;;;;;4972380;28;45549;-66
2022/06/12 05:36:25;;;;;;;;;2.50;2.50;;;;;;;;4972968;28;48425;-66
2022/06/12 05:38:50;;;;;;;;;3.25;2.00;;;;;;;;4971707;28;45539;-65
2022/06/12 05:41:17;;;;;;;;;4.25;3.75;;;;;;;;4974619;28;45463;-66
2022/06/12 05:43:42;;;;;;;;;2.50;2.50;;;;;;;;4974228;28;45490;-65
2022/06/12 05:46:12;;;;;;;;;4.00;3.00;;;;;;;;5004180;28;46532;-66
2022/06/12 05:48:37;;;;;;;;;3.50;3.50;;;;;;;;4972129;28;45539;-68
2022/06/12 05:51:03;;;;;;;;;5.00;3.50;;;;;;;;4967944;28;47144;-67
2022/06/12 05:53:30;;;;;;;;;2.50;1.75;;;;;;;;4973600;28;45341;-67
2022/06/12 05:55:55;;;;;;;;;3.00;2.00;;;;;;;;4973034;28;45729;-68
2022/06/12 05:58:22;;;;;;;;;3.25;2.25;;;;;;;;5005007;28;45426;-67
2022/06/12 06:00:47;;;;;;;;;3.00;3.00;;;;;;;;4973776;28;45422;-66
2022/06/12 06:03:12;;;;;;;;;2.25;2.25;;;;;;;;4973714;28;45427;-67
2022/06/12 06:05:39;;;;;;;;;3.00;1.50;;;;;;;;4971193;28;47743;-66
2022/06/12 06:08:05;;;;;;;;;5.00;4.00;;;;;;;;4971254;28;45793;-66
2022/06/12 06:10:30;;;;;;;;;3.00;2.00;;;;;;;;4973714;28;45965;-66
2022/06/12 06:12:56;;;;;;;;;5.25;3.00;;;;;;;;4972202;28;45478;-66
2022/06/12 06:15:21;;;;;;;;;3.75;2.50;;;;;;;;4973721;28;46386;-66
2022/06/12 06:17:46;;;;;;;;;4.00;1.50;;;;;;;;4971410;28;45794;-66
2022/06/12 06:20:14;;;;;;;;;3.00;1.75;;;;;;;;5005077;28;45528;-66
2022/06/12 06:22:39;;;;;;;;;7.50;3.00;;;;;;;;4973417;28;45450;-66
2022/06/12 06:25:04;;;;;;;;;1.25;1.25;;;;;;;;4972045;28;45529;-67
2022/06/12 06:27:30;;;;;;;;;5.25;2.75;;;;;;;;4971094;28;46325;-66
2022/06/12 06:29:55;;;;;;;;;5.00;3.50;;;;;;;;4973301;28;45425;-66
2022/06/12 06:32:20;;;;;;;;;3.60;3.60;;;;;;;;4931505;28;1228365;-66
2022/06/12 06:34:45;;;;;;;;;4.75;2.25;;;;;;;;4973373;28;45518;-66
2022/06/12 06:37:12;;;;;;;;;4.00;3.75;;;;;;;;4973595;28;45843;-67
2022/06/12 06:39:38;;;;;;;;;4.50;3.50;;;;;;;;4972923;28;45573;-67
2022/06/12 06:42:04;;;;;;;;;6.50;3.00;;;;;;;;4972114;28;45500;-67
2022/06/12 06:47:13;;;;;;;;;3.25;2.75;;;;;;;;4974717;28;46069;-67
2022/06/12 06:49:38;;;;;;;;;2.75;2.75;;;;;;;;4972090;28;45361;-67
2022/06/12 06:52:04;;;;;;;;;3.25;3.25;;;;;;;;4973067;28;45531;-66
2022/06/12 06:54:29;;;;;;;;;5.75;4.00;;;;;;;;5004927;28;47578;-67
2022/06/12 06:56:55;;;;;;;;;5.25;4.00;;;;;;;;4971170;28;45637;-66
2022/06/12 06:59:20;;;;;;;;;2.50;2.50;;;;;;;;5006141;28;45446;-67
2022/06/12 07:01:45;;;;;;;;;2.00;2.00;;;;;;;;4973468;28;45541;-67
2022/06/12 07:04:11;;;;;;;;;2.50;2.50;;;;;;;;4972294;28;46524;-65
2022/06/12 07:06:36;;;;;;;;;2.50;2.25;;;;;;;;4972670;28;45971;-65
2022/06/12 07:09:01;;;;;;;;;4.00;2.25;;;;;;;;4974365;28;45790;-66
2022/06/12 07:11:28;;;;;;;;;3.25;2.25;;;;;;;;4972132;28;45517;-65
2022/06/12 07:13:53;;;;;;;;;3.25;3.25;;;;;;;;4974059;28;45847;-65
2022/06/12 07:16:19;;;;;;;;;1.75;1.50;;;;;;;;4972281;28;46293;-66
2022/06/12 07:18:44;;;;;;;;;5.00;4.00;;;;;;;;5005554;28;45365;-66
2022/06/12 07:21:10;;;;;;;;;2.50;2.25;;;;;;;;4974063;28;45418;-65
2022/06/12 07:23:36;;;;;;;;;3.50;3.50;;;;;;;;4974104;28;46393;-67
2022/06/12 07:26:04;;;;;;;;;2.50;2.50;;;;;;;;4966524;28;45442;-65
2022/06/12 07:28:30;;;;;;;;;3.00;3.00;;;;;;;;4972607;28;45425;-66
2022/06/12 07:30:56;;;;;;;;;2.50;2.25;;;;;;;;4972034;28;45491;-67
2022/06/12 07:33:22;;;;;;;;;2.75;1.75;;;;;;;;4971811;28;47464;-67
2022/06/12 07:35:47;;;;;;;;;4.25;3.50;;;;;;;;4970801;28;46162;-67
2022/06/12 07:38:14;;;;;;;;;5.75;4.00;;;;;;;;4986409;28;45457;-67
2022/06/12 07:40:42;;;;;;;;;3.00;2.75;;;;;;;;4970200;28;45511;-66
2022/06/12 07:43:08;;;;;;;;;5.00;3.00;;;;;;;;4972697;28;45351;-66
2022/06/12 07:45:34;;;;;;;;;3.50;2.75;;;;;;;;4972620;28;45486;-67
2022/06/12 07:47:59;;;;;;;;;3.00;3.00;;;;;;;;4973344;28;45402;-66
2022/06/12 07:50:24;;;;;;;;;7.00;4.00;;;;;;;;4973432;28;45353;-67
2022/06/12 07:52:49;;;;;;;;;4.00;1.00;;;;;;;;4972810;28;46525;-66
2022/06/12 07:55:15;;;;;;;;;3.25;1.50;;;;;;;;4971973;28;47924;-67
2022/06/12 07:57:41;;;;;;;;;2.25;2.25;;;;;;;;4971349;28;45624;-66
2022/06/12 08:00:07;;;;;;;;;3.75;2.75;;;;;;;;4970128;28;45549;-67
2022/06/12 08:02:32;;;;;;;;;3.00;2.25;;;;;;;;4971425;28;45648;-66
2022/06/12 08:04:58;;;;;;;;;2.75;2.75;;;;;;;;4972958;28;45359;-65
2022/06/12 08:07:23;;;;;;;;;3.00;3.00;;;;;;;;4973393;28;46031;-66
2022/06/12 08:09:48;;;;;;;;;2.50;2.50;;;;;;;;5004908;28;45390;-66
2022/06/12 08:12:13;;;;;;;;;1.25;1.25;;;;;;;;4969394;28;45811;-67
2022/06/12 08:14:39;;;;;;;;;1.75;1.25;;;;;;;;4962838;28;45481;-66
2022/06/12 08:17:05;;;;;;;;;5.75;1.75;;;;;;;;4972446;28;45801;-68
2022/06/12 08:22:14;;;;;;;;;1.00;1.00;;;;;;;;4972712;28;45691;-66
2022/06/12 08:24:39;;;;;;;;;1.25;1.25;;;;;;;;4972444;28;45423;-66
2022/06/12 08:27:04;;;;;;;;;2.00;1.00;;;;;;;;4972619;28;45510;-67
2022/06/12 08:29:30;;;;;;;;;1.50;1.50;;;;;;;;4972464;28;45375;-67
2022/06/12 08:31:57;;;;;;;;;2.00;1.25;;;;;;;;4971397;28;45779;-67
2022/06/12 08:34:27;;;;;;;;;4.00;2.00;;;;;;;;4970060;28;46329;-67
2022/06/12 08:36:54;;;;;;;;;2.25;2.25;;;;;;;;4972236;28;45688;-66
2022/06/12 08:39:19;;;;;;;;;1.00;1.00;;;;;;;;4971808;28;45501;-67
2022/06/12 08:42:05;;;;;;;;;7.00;6.25;;;;;;;;4971921;28;45702;-67
2022/06/12 08:44:51;;;;;;;;;2.00;2.00;;;;;;;;4971618;28;45419;-66
2022/06/12 08:47:23;;;;;;;;;1.75;1.00;;;;;;;;4987597;28;45372;-66
2022/06/12 08:49:56;;;;;;;;;0.00;0.00;;;;;;;;4967108;28;45693;-67
2022/06/12 08:52:29;;;;;;;;;1.00;1.00;;;;;;;;4969833;28;48327;-67
2022/06/12 08:55:01;;;;;;;;;1.00;1.00;;;;;;;;4967631;28;45633;-66
2022/06/12 08:57:31;;;;;;;;;2.75;1.25;;;;;;;;4968825;28;45905;-68
2022/06/12 09:00:26;;;;;;;;;1.00;1.00;;;;;;;;4970705;28;45358;-67
2022/06/12 09:02:51;;;;;;;;;1.00;1.00;;;;;;;;4962759;28;47132;-68
2022/06/12 09:05:20;;;;;;;;;1.25;1.25;;;;;;;;4966707;28;45460;-68
2022/06/12 09:07:48;;;;;;;;;9.00;7.00;;;;;;;;4969996;28;45478;-69
2022/06/12 09:10:17;;;;;;;;;3.00;1.50;;;;;;;;4969281;28;45537;-67
2022/06/12 09:12:49;;;;;;;;;4.25;2.00;;;;;;;;4970637;28;45721;-66
2022/06/12 09:15:19;;;;;;;;;2.25;2.25;;;;;;;;4999843;28;46148;-67
2022/06/12 09:17:45;;;;;;;;;0.75;0.75;;;;;;;;4970132;28;45535;-67
2022/06/12 09:20:16;;;;;;;;;2.00;0.75;;;;;;;;4970494;28;45354;-66
2022/06/12 09:22:54;;;;;;;;;0.25;0.25;;;;;;;;4970669;28;46638;-66
2022/06/12 09:25:28;;;;;;;;;2.25;2.25;;;;;;;;4969621;28;45488;-67
2022/06/12 09:27:59;;;;;;;;;6.25;5.75;;;;;;;;4972417;28;45864;-66
2022/06/12 09:30:36;;;;;;;;;1.00;1.00;;;;;;;;4987627;28;45391;-66
2022/06/12 09:33:16;;;;;;;;;3.25;1.50;;;;;;;;4985913;28;46591;-68
2022/06/12 09:35:52;;;;;;;;;1.75;1.75;;;;;;;;4972829;28;45533;-68
2022/06/12 09:38:37;;;;;;;;;1.25;1.25;;;;;;;;4988114;28;45490;-67
2022/06/12 09:41:18;;;;;;;;;3.00;2.00;;;;;;;;4986431;28;45512;-68
2022/06/12 09:44:03;;;;;;;;;3.50;2.25;;;;;;;;4986907;28;47798;-67
2022/06/12 09:46:31;;;;;;;;;1.00;1.00;;;;;;;;4987791;28;45597;-66
2022/06/12 09:49:02;;;;;;;;;2.50;1.00;;;;;;;;4972242;28;45533;-67
2022/06/12 09:52:02;;;;;;;;;3.00;3.00;;;;;;;;4973086;28;45974;-67
2022/06/12 09:54:46;;;;;;;;;2.25;2.25;;;;;;;;4889612;28;47631;-67
2022/06/12 09:57:17;;;;;;;;;2.00;2.00;;;;;;;;4911178;28;45379;-66
2022/06/12 09:59:46;;;;;;;;;1.00;1.00;;;;;;;;4911680;28;45545;-67
2022/06/12 10:02:19;;;;;;;;;3.00;1.50;;;;;;;;4911608;28;45437;-66
2022/06/12 10:04:58;;;;;;;;;2.00;2.00;;;;;;;;4913067;28;45893;-66
2022/06/12 10:07:31;;;;;;;;;3.00;2.00;;;;;;;;4913786;28;45500;-66
2022/06/12 10:09:59;;;;;;;;;3.75;2.00;;;;;;;;4930136;28;45597;-68
2022/06/12 10:12:27;;;;;;;;;1.25;1.25;;;;;;;;4913076;28;45521;-69
2022/06/12 10:14:55;;;;;;;;;2.50;2.50;;;;;;;;4914036;28;45603;-66
2022/06/12 10:17:23;;;;;;;;;3.00;2.00;;;;;;;;4930570;28;45455;-67
2022/06/12 10:20:06;;;;;;;;;2.00;2.00;;;;;;;;4914142;28;45357;-67
2022/06/12 10:22:40;;;;;;;;;2.75;2.00;;;;;;;;4913947;28;45397;-65
2022/06/12 10:25:07;;;;;;;;;5.50;5.25;;;;;;;;4913433;28;46514;-66
2022/06/12 10:27:44;;;;;;;;;5.75;5.50;;;;;;;;4903487;28;45477;-66
2022/06/12 10:30:22;;;;;;;;;3.75;2.25;;;;;;;;4974592;28;45331;-66
2022/06/12 10:32:49;;;;;;;;;6.00;3.00;;;;;;;;4972968;28;45537;-66
2022/06/12 10:35:15;;;;;;;;;3.00;3.00;;;;;;;;4974064;28;45862;-65
2022/06/12 10:37:40;;;;;;;;;1.50;1.00;;;;;;;;4972304;28;45474;-66
2022/06/12 10:40:13;;;;;;;;;2.50;2.50;;;;;;;;4973816;28;45355;-65
2022/06/12 10:42:48;;;;;;;;;2.00;2.00;;;;;;;;4974337;28;45441;-66
2022/06/12 10:45:19;;;;;;;;;5.00;2.00;;;;;;;;5005110;28;48583;-66
2022/06/12 10:47:45;;;;;;;;;3.00;2.00;;;;;;;;4972482;28;45559;-65
2022/06/12 10:50:14;;;;;;;;;4.00;2.00;;;;;;;;4974954;28;45768;-65
2022/06/12 10:52:49;;;;;;;;;4.50;3.00;;;;;;;;4973871;28;45398;-66
2022/06/12 10:55:15;;;;;;;;;0.00;0.00;;;;;;;;4973406;28;45828;-66
2022/06/12 10:57:47;;;;;;;;;1.50;1.50;;;;;;;;4972545;28;45410;-66
2022/06/12 11:00:24;;;;;;;;;6.00;4.25;;;;;;;;4973950;28;45368;-65
2022/06/12 11:03:08;;;;;;;;;5.00;3.25;;;;;;;;4974077;28;45547;-66
2022/06/12 11:05:39;;;;;;;;;3.75;3.75;;;;;;;;4973500;28;46156;-66
2022/06/12 11:08:23;;;;;;;;;2.75;2.75;;;;;;;;4974083;28;45331;-68
2022/06/12 11:11:07;;;;;;;;;3.00;3.00;;;;;;;;4974161;28;45822;-65
2022/06/12 11:13:52;;;;;;;;;2.50;2.00;;;;;;;;4973914;28;45371;-66
2022/06/12 11:16:26;;;;;;;;;1.00;1.00;;;;;;;;4974895;28;46454;-66
2022/06/12 11:18:57;;;;;;;;;2.00;2.00;;;;;;;;4973459;28;45478;-67
2022/06/12 11:21:22;;;;;;;;;5.00;3.25;;;;;;;;4973676;28;45490;-66
2022/06/12 11:23:50;;;;;;;;;4.25;3.75;;;;;;;;4974082;28;45399;-66
2022/06/12 11:26:22;;;;;;;;;4.00;4.00;;;;;;;;4997758;28;47700;-63
2022/06/12 11:29:05;;;;;;;;;6.50;5.50;;;;;;;;5002098;28;46277;-66
2022/06/12 11:31:46;;;;;;;;;3.75;3.00;;;;;;;;4997600;28;45506;-64
2022/06/12 11:34:27;;;;;;;;;1.75;1.75;;;;;;;;4972216;28;45297;-65
2022/06/12 11:37:11;;;;;;;;;1.75;1.50;;;;;;;;4971948;28;45866;-66
2022/06/12 11:39:56;;;;;;;;;3.75;3.75;;;;;;;;4964441;28;45763;-67
2022/06/12 11:42:40;;;;;;;;;3.00;3.00;;;;;;;;4964480;28;46285;-68
2022/06/12 11:45:13;;;;;;;;;3.25;3.25;;;;;;;;4965539;28;45535;-67
2022/06/12 11:47:45;;;;;;;;;4.00;3.50;;;;;;;;4969870;28;45565;-66
2022/06/12 11:50:10;;;;;;;;;1.50;1.50;;;;;;;;4972066;28;45504;-68
2022/06/12 11:52:38;;;;;;;;;5.00;5.00;;;;;;;;4971762;28;46509;-67
2022/06/12 11:55:16;;;;;;;;;3.25;3.00;;;;;;;;4999925;28;45542;-69
2022/06/12 11:57:48;;;;;;;;;2.25;2.25;;;;;;;;4970868;28;45600;-66
2022/06/12 12:00:18;;;;;;;;;2.00;2.00;;;;;;;;4972845;28;45592;-65
2022/06/12 12:03:10;;;;;;;;;2.00;2.00;;;;;;;;4971754;28;45578;-68
2022/06/12 12:05:45;;;;;;;;;1.50;1.50;;;;;;;;4969590;28;45486;-68
2022/06/12 12:08:13;;;;;;;;;10.75;8.50;;;;;;;;4972111;28;46562;-66
2022/06/12 12:10:44;;;;;;;;;2.50;2.50;;;;;;;;4971510;28;45576;-67
2022/06/12 12:13:15;;;;;;;;;2.00;2.00;;;;;;;;4976926;28;45370;-66
2022/06/12 12:15:59;;;;;;;;;1.00;1.00;;;;;;;;4983137;28;45449;-66
2022/06/12 12:18:26;;;;;;;;;2.00;2.00;;;;;;;;4970736;28;45568;-66
2022/06/12 12:20:53;;;;;;;;;3.00;3.00;;;;;;;;4967565;28;45937;-66
2022/06/12 12:23:22;;;;;;;;;4.50;4.50;;;;;;;;4969716;28;45427;-67
2022/06/12 12:26:02;;;;;;;;;7.50;6.50;;;;;;;;4973812;28;45585;-66
2022/06/12 12:28:28;;;;;;;;;3.00;3.00;;;;;;;;5005708;28;47965;-66
2022/06/12 12:30:57;;;;;;;;;2.00;2.00;;;;;;;;5003891;28;46839;-67
2022/06/12 12:33:22;;;;;;;;;7.75;7.75;;;;;;;;4972060;28;45388;-67
2022/06/12 12:41:16;;;;;;;;;3.00;2.00;;;;;;;;4968983;28;45443;-68
2022/06/12 12:43:52;;;;;;;;;1.00;1.00;;;;;;;;4972606;28;45482;-67
2022/06/12 12:46:18;;;;;;;;;2.25;2.25;;;;;;;;4971872;28;45548;-68
2022/06/12 12:48:45;;;;;;;;;4.00;4.00;;;;;;;;4974316;28;46268;-67
2022/06/12 12:51:21;;;;;;;;;2.50;2.50;;;;;;;;4973473;28;47689;-67
2022/06/12 12:53:47;;;;;;;;;2.75;1.50;;;;;;;;4971553;28;45964;-67
2022/06/12 12:56:13;;;;;;;;;4.00;3.00;;;;;;;;4973094;28;45894;-67
2022/06/12 12:58:40;;;;;;;;;3.75;2.00;;;;;;;;4972558;28;46181;-67
2022/06/12 13:01:22;;;;;;;;;2.00;2.00;;;;;;;;4973955;28;45530;-68
2022/06/12 13:03:49;;;;;;;;;1.00;1.00;;;;;;;;4970879;28;45400;-68
2022/06/12 13:06:21;;;;;;;;;1.00;1.00;;;;;;;;4973542;28;45534;-67
2022/06/12 13:09:05;;;;;;;;;2.25;2.25;;;;;;;;5000899;28;46714;-67
2022/06/12 13:11:40;;;;;;;;;3.00;3.00;;;;;;;;4980127;28;45411;-66
2022/06/12 13:14:14;;;;;;;;;3.50;3.25;;;;;;;;4989393;28;45451;-66
2022/06/12 13:16:46;;;;;;;;;1.00;1.00;;;;;;;;4977821;28;45542;-67
2022/06/12 13:19:12;;;;;;;;;3.25;1.25;;;;;;;;4985120;28;46481;-66
2022/06/12 13:21:50;;;;;;;;;1.25;1.25;;;;;;;;5001296;28;45590;-66
2022/06/12 13:24:21;;;;;;;;;0.00;0.00;;;;;;;;5022563;28;45940;-67
2022/06/12 13:26:47;;;;;;;;;16.00;13.25;;;;;;;;4988393;28;45527;-66
2022/06/12 13:29:19;;;;;;;;;3.25;3.25;;;;;;;;4982620;28;45715;-67
2022/06/12 13:31:57;;;;;;;;;4.50;2.00;;;;;;;;4986583;28;45671;-67
2022/06/12 13:34:23;;;;;;;;;2.00;2.00;;;;;;;;4983220;28;45845;-67
2022/06/12 13:36:49;;;;;;;;;0.25;0.25;;;;;;;;4982428;28;45636;-67
2022/06/12 13:39:20;;;;;;;;;0.50;0.25;;;;;;;;4989436;28;45386;-66
2022/06/12 13:41:49;;;;;;;;;3.75;3.75;;;;;;;;5012339;28;45864;-67
2022/06/12 13:44:17;;;;;;;;;4.25;3.25;;;;;;;;4982447;28;45397;-67
2022/06/12 13:46:42;;;;;;;;;2.50;2.50;;;;;;;;4969391;28;45455;-67
2022/06/12 13:49:19;;;;;;;;;2.75;2.75;;;;;;;;4992998;28;47591;-67
2022/06/12 13:51:49;;;;;;;;;2.00;2.00;;;;;;;;4987003;28;46107;-68
2022/06/12 13:54:17;;;;;;;;;1.00;1.00;;;;;;;;4981612;28;45394;-67
2022/06/12 13:56:44;;;;;;;;;3.00;1.00;;;;;;;;4987487;28;45435;-67
2022/06/12 13:59:14;;;;;;;;;3.00;3.00;;;;;;;;4981251;28;46539;-66
2022/06/12 14:01:39;;;;;;;;;2.75;2.75;;;;;;;;4986407;28;45487;-68
2022/06/12 14:04:08;;;;;;;;;2.00;2.00;;;;;;;;4985952;28;45571;-67
2022/06/12 14:06:35;;;;;;;;;1.75;1.75;;;;;;;;4981770;28;45474;-67
2022/06/12 14:09:05;;;;;;;;;3.00;2.25;;;;;;;;4988055;28;45869;-66
2022/06/12 14:11:31;;;;;;;;;3.50;2.00;;;;;;;;4982295;28;45600;-67
2022/06/12 14:13:57;;;;;;;;;2.75;2.75;;;;;;;;4987976;28;45473;-67
2022/06/12 14:16:24;;;;;;;;;2.25;2.25;;;;;;;;4981178;28;45428;-67
2022/06/12 14:18:58;;;;;;;;;1.00;1.00;;;;;;;;4984756;28;45757;-66
2022/06/12 14:21:30;;;;;;;;;1.50;1.50;;;;;;;;4966179;28;45546;-67
2022/06/12 14:24:00;;;;;;;;;4.25;1.75;;;;;;;;4978913;28;46228;-67
2022/06/12 14:26:33;;;;;;;;;1.00;1.00;;;;;;;;4968250;28;45583;-67
2022/06/12 14:28:59;;;;;;;;;2.75;2.00;;;;;;;;4977208;28;46742;-67
2022/06/12 14:31:27;;;;;;;;;1.00;1.00;;;;;;;;4982330;28;45621;-68
2022/06/12 14:34:04;;;;;;;;;3.00;1.75;;;;;;;;4973454;28;45704;-68
2022/06/12 14:36:34;;;;;;;;;2.00;2.00;;;;;;;;4971283;28;46518;-68
2022/06/12 14:39:09;;;;;;;;;2.00;2.00;;;;;;;;4974208;28;46048;-68
2022/06/12 14:41:34;;;;;;;;;1.00;1.00;;;;;;;;4977999;28;45437;-69
2022/06/12 14:44:00;;;;;;;;;4.25;2.75;;;;;;;;4971691;28;45589;-69
2022/06/12 14:46:26;;;;;;;;;2.00;2.00;;;;;;;;4969042;28;45467;-67
2022/06/12 14:48:53;;;;;;;;;1.25;1.25;;;;;;;;4989670;28;48734;-68
2022/06/12 14:51:19;;;;;;;;;1.25;1.25;;;;;;;;4976603;28;46008;-67
2022/06/12 14:53:44;;;;;;;;;3.00;2.00;;;;;;;;4973186;28;45516;-68
2022/06/12 14:56:14;;;;;;;;;3.00;3.00;;;;;;;;4974078;28;45614;-67
2022/06/12 14:58:40;;;;;;;;;3.00;2.00;;;;;;;;4975618;28;46002;-69
2022/06/12 15:01:13;;;;;;;;;2.00;2.00;;;;;;;;4979643;28;46070;-68
2022/06/12 15:03:38;;;;;;;;;2.50;2.50;;;;;;;;4973609;28;45923;-69
2022/06/12 15:06:04;;;;;;;;;3.00;2.50;;;;;;;;4976404;28;45437;-67
2022/06/12 15:08:29;;;;;;;;;1.75;1.75;;;;;;;;4980095;28;46332;-67
2022/06/12 15:10:56;;;;;;;;;1.75;1.75;;;;;;;;4976000;28;45406;-68
2022/06/12 15:13:22;;;;;;;;;3.00;2.00;;;;;;;;4981911;28;46394;-68
2022/06/12 15:15:48;;;;;;;;;3.00;1.50;;;;;;;;4976215;28;45533;-68